Terminal Aerodrome Forecast
Issued by NWS Goodland, KS

Home | Current Version | Previous Version | Text Only | Print | Product List | Glossary On
Versions: 1 2 3 4 5 6 7 8 9 10 11 12 13 14 15 16 17 18 19 20 21 22 23 24 25
000
FTUS43 KGLD 240453 AAC
TAFGLD
TAF AMD
KGLD 240453Z 2405/2424 14013KT P6SM BKN070
     FM240600 16008KT 6SM BR OVC007
      TEMPO 2406/2410 3SM -DZ BR OVC004
     FM241000 17010KT 3SM -DZ BR OVC004
     FM241300 21006KT 3SM -DZ BR OVC004
     FM241600 27006KT P6SM SCT004 BKN008
     FM242000 34010KT P6SM SCT060 SCT100 BKN180=

USA.gov is the U.S. government's official web portal to all federal, state and local government web resources and services.